sensor_id;sensor_type;location;lat;lon;timestamp;P1;durP1;ratioP1;P2;durP2;ratioP2
4933;SDS011;2482;49.154;8.254;2024-02-04T00:01:59;3.57;;;3.27;;
4933;SDS011;2482;49.154;8.254;2024-02-04T00:04:26;3.73;;;3.33;;
4933;SDS011;2482;49.154;8.254;2024-02-04T00:06:54;3.97;;;3.63;;
4933;SDS011;2482;49.154;8.254;2024-02-04T00:09:21;5.30;;;4.43;;
4933;SDS011;2482;49.154;8.254;2024-02-04T00:11:49;4.20;;;3.80;;
4933;SDS011;2482;49.154;8.254;2024-02-04T00:14:17;4.13;;;3.73;;
4933;SDS011;2482;49.154;8.254;2024-02-04T00:16:44;5.23;;;4.10;;
4933;SDS011;2482;49.154;8.254;2024-02-04T00:19:11;4.37;;;3.97;;
4933;SDS011;2482;49.154;8.254;2024-02-04T00:21:38;4.57;;;4.00;;
4933;SDS011;2482;49.154;8.254;2024-02-04T00:24:06;5.00;;;4.40;;
4933;SDS011;2482;49.154;8.254;2024-02-04T00:26:33;4.57;;;4.17;;
4933;SDS011;2482;49.154;8.254;2024-02-04T00:29:00;5.47;;;4.90;;
4933;SDS011;2482;49.154;8.254;2024-02-04T00:31:27;5.33;;;4.40;;
4933;SDS011;2482;49.154;8.254;2024-02-04T00:33:55;5.13;;;4.63;;
4933;SDS011;2482;49.154;8.254;2024-02-04T00:36:23;6.57;;;4.10;;
4933;SDS011;2482;49.154;8.254;2024-02-04T00:38:50;5.47;;;4.30;;
4933;SDS011;2482;49.154;8.254;2024-02-04T00:41:17;7.90;;;5.40;;
4933;SDS011;2482;49.154;8.254;2024-02-04T00:43:45;5.80;;;4.60;;
4933;SDS011;2482;49.154;8.254;2024-02-04T00:46:12;4.37;;;3.90;;
4933;SDS011;2482;49.154;8.254;2024-02-04T00:48:39;5.63;;;4.30;;
4933;SDS011;2482;49.154;8.254;2024-02-04T00:51:08;8.30;;;4.80;;
4933;SDS011;2482;49.154;8.254;2024-02-04T00:53:36;6.20;;;4.43;;
4933;SDS011;2482;49.154;8.254;2024-02-04T00:56:03;4.93;;;4.27;;
4933;SDS011;2482;49.154;8.254;2024-02-04T00:58:30;5.10;;;4.60;;
4933;SDS011;2482;49.154;8.254;2024-02-04T01:00:57;4.60;;;4.00;;
4933;SDS011;2482;49.154;8.254;2024-02-04T01:03:25;7.40;;;4.73;;
4933;SDS011;2482;49.154;8.254;2024-02-04T01:05:52;6.23;;;4.80;;
4933;SDS011;2482;49.154;8.254;2024-02-04T01:08:19;6.13;;;4.87;;
4933;SDS011;2482;49.154;8.254;2024-02-04T01:10:47;5.10;;;4.60;;
4933;SDS011;2482;49.154;8.254;2024-02-04T01:13:14;5.07;;;4.57;;
4933;SDS011;2482;49.154;8.254;2024-02-04T01:15:41;7.53;;;4.43;;
4933;SDS011;2482;49.154;8.254;2024-02-04T01:18:08;4.20;;;3.80;;
4933;SDS011;2482;49.154;8.254;2024-02-04T01:20:35;4.70;;;3.90;;
4933;SDS011;2482;49.154;8.254;2024-02-04T01:23:02;4.50;;;3.20;;
4933;SDS011;2482;49.154;8.254;2024-02-04T01:25:29;5.17;;;4.40;;
4933;SDS011;2482;49.154;8.254;2024-02-04T01:27:56;4.80;;;3.73;;
4933;SDS011;2482;49.154;8.254;2024-02-04T01:30:23;6.50;;;3.50;;
4933;SDS011;2482;49.154;8.254;2024-02-04T01:32:51;6.40;;;3.70;;
4933;SDS011;2482;49.154;8.254;2024-02-04T01:35:19;4.80;;;3.97;;
4933;SDS011;2482;49.154;8.254;2024-02-04T01:37:46;3.47;;;3.17;;
4933;SDS011;2482;49.154;8.254;2024-02-04T01:40:15;5.13;;;3.73;;
4933;SDS011;2482;49.154;8.254;2024-02-04T01:42:42;9.07;;;4.07;;
4933;SDS011;2482;49.154;8.254;2024-02-04T01:45:09;5.17;;;3.47;;
4933;SDS011;2482;49.154;8.254;2024-02-04T01:47:37;5.33;;;4.10;;
4933;SDS011;2482;49.154;8.254;2024-02-04T01:50:05;4.43;;;3.23;;
4933;SDS011;2482;49.154;8.254;2024-02-04T01:52:33;3.97;;;3.10;;
4933;SDS011;2482;49.154;8.254;2024-02-04T01:55:02;3.03;;;2.83;;
4933;SDS011;2482;49.154;8.254;2024-02-04T01:57:32;3.97;;;3.33;;
4933;SDS011;2482;49.154;8.254;2024-02-04T02:00:02;8.20;;;4.00;;
4933;SDS011;2482;49.154;8.254;2024-02-04T02:02:30;5.30;;;3.47;;
4933;SDS011;2482;49.154;8.254;2024-02-04T02:05:00;4.10;;;3.70;;
4933;SDS011;2482;49.154;8.254;2024-02-04T02:07:27;4.60;;;3.03;;
4933;SDS011;2482;49.154;8.254;2024-02-04T02:09:55;4.87;;;2.80;;
4933;SDS011;2482;49.154;8.254;2024-02-04T02:12:24;3.70;;;2.87;;
4933;SDS011;2482;49.154;8.254;2024-02-04T02:15:06;3.20;;;2.90;;
4933;SDS011;2482;49.154;8.254;2024-02-04T02:18:03;3.50;;;3.20;;
4933;SDS011;2482;49.154;8.254;2024-02-04T02:26:02;4.43;;;3.17;;
4933;SDS011;2482;49.154;8.254;2024-02-04T02:28:31;2.80;;;2.60;;
4933;SDS011;2482;49.154;8.254;2024-02-04T02:30:58;3.20;;;2.90;;
4933;SDS011;2482;49.154;8.254;2024-02-04T02:33:27;7.20;;;3.20;;
4933;SDS011;2482;49.154;8.254;2024-02-04T02:35:56;3.07;;;2.80;;
4933;SDS011;2482;49.154;8.254;2024-02-04T02:38:33;3.27;;;2.97;;
4933;SDS011;2482;49.154;8.254;2024-02-04T02:41:10;2.77;;;2.57;;
4933;SDS011;2482;49.154;8.254;2024-02-04T02:43:39;2.80;;;2.40;;
4933;SDS011;2482;49.154;8.254;2024-02-04T02:46:07;5.00;;;2.33;;
4933;SDS011;2482;49.154;8.254;2024-02-04T02:48:35;3.97;;;3.00;;
4933;SDS011;2482;49.154;8.254;2024-02-04T02:51:02;2.60;;;2.40;;
4933;SDS011;2482;49.154;8.254;2024-02-04T02:53:31;3.10;;;2.67;;
4933;SDS011;2482;49.154;8.254;2024-02-04T02:55:58;2.83;;;2.30;;
4933;SDS011;2482;49.154;8.254;2024-02-04T02:58:25;2.47;;;2.20;;
4933;SDS011;2482;49.154;8.254;2024-02-04T03:00:53;2.50;;;2.30;;
4933;SDS011;2482;49.154;8.254;2024-02-04T03:03:20;4.73;;;2.37;;
4933;SDS011;2482;49.154;8.254;2024-02-04T03:05:47;2.67;;;1.83;;
4933;SDS011;2482;49.154;8.254;2024-02-04T03:08:14;2.60;;;2.20;;
4933;SDS011;2482;49.154;8.254;2024-02-04T03:10:41;2.57;;;2.37;;
4933;SDS011;2482;49.154;8.254;2024-02-04T03:13:08;3.10;;;2.70;;
4933;SDS011;2482;49.154;8.254;2024-02-04T03:15:35;2.47;;;2.27;;
4933;SDS011;2482;49.154;8.254;2024-02-04T03:18:02;2.83;;;2.60;;
4933;SDS011;2482;49.154;8.254;2024-02-04T03:20:29;3.97;;;2.80;;
4933;SDS011;2482;49.154;8.254;2024-02-04T03:22:56;2.60;;;2.40;;
4933;SDS011;2482;49.154;8.254;2024-02-04T03:25:23;2.40;;;2.20;;
4933;SDS011;2482;49.154;8.254;2024-02-04T03:27:52;3.43;;;2.30;;
4933;SDS011;2482;49.154;8.254;2024-02-04T03:30:19;2.43;;;2.13;;
4933;SDS011;2482;49.154;8.254;2024-02-04T03:32:47;3.20;;;2.20;;
4933;SDS011;2482;49.154;8.254;2024-02-04T03:35:14;2.53;;;2.33;;
4933;SDS011;2482;49.154;8.254;2024-02-04T03:37:41;3.40;;;2.87;;
4933;SDS011;2482;49.154;8.254;2024-02-04T03:40:08;2.50;;;2.30;;
4933;SDS011;2482;49.154;8.254;2024-02-04T03:42:37;2.70;;;2.23;;
4933;SDS011;2482;49.154;8.254;2024-02-04T03:45:04;2.67;;;2.40;;
4933;SDS011;2482;49.154;8.254;2024-02-04T03:47:32;2.47;;;2.27;;
4933;SDS011;2482;49.154;8.254;2024-02-04T03:49:59;2.70;;;2.50;;
4933;SDS011;2482;49.154;8.254;2024-02-04T03:52:26;3.53;;;2.43;;
4933;SDS011;2482;49.154;8.254;2024-02-04T03:54:53;2.80;;;2.27;;
4933;SDS011;2482;49.154;8.254;2024-02-04T03:57:20;3.27;;;2.97;;
4933;SDS011;2482;49.154;8.254;2024-02-04T03:59:47;3.17;;;2.80;;
4933;SDS011;2482;49.154;8.254;2024-02-04T04:02:14;2.90;;;2.33;;
4933;SDS011;2482;49.154;8.254;2024-02-04T04:04:41;2.23;;;2.10;;
4933;SDS011;2482;49.154;8.254;2024-02-04T04:07:10;2.53;;;2.33;;
4933;SDS011;2482;49.154;8.254;2024-02-04T04:09:38;2.53;;;2.30;;
4933;SDS011;2482;49.154;8.254;2024-02-04T04:12:05;3.37;;;2.30;;
4933;SDS011;2482;49.154;8.254;2024-02-04T04:14:32;3.50;;;2.30;;
4933;SDS011;2482;49.154;8.254;2024-02-04T04:16:59;2.57;;;2.37;;
4933;SDS011;2482;49.154;8.254;2024-02-04T04:19:26;2.33;;;2.10;;
4933;SDS011;2482;49.154;8.254;2024-02-04T04:21:55;4.17;;;2.23;;
4933;SDS011;2482;49.154;8.254;2024-02-04T04:24:23;2.67;;;2.47;;
4933;SDS011;2482;49.154;8.254;2024-02-04T04:26:50;3.20;;;2.37;;
4933;SDS011;2482;49.154;8.254;2024-02-04T04:29:17;3.13;;;2.53;;
4933;SDS011;2482;49.154;8.254;2024-02-04T04:31:44;3.00;;;2.63;;
4933;SDS011;2482;49.154;8.254;2024-02-04T04:34:11;2.70;;;2.23;;
4933;SDS011;2482;49.154;8.254;2024-02-04T04:36:39;4.10;;;2.50;;
4933;SDS011;2482;49.154;8.254;2024-02-04T04:39:06;2.90;;;2.60;;
4933;SDS011;2482;49.154;8.254;2024-02-04T04:41:33;3.50;;;2.40;;
4933;SDS011;2482;49.154;8.254;2024-02-04T04:44:00;2.87;;;2.63;;
4933;SDS011;2482;49.154;8.254;2024-02-04T04:46:27;3.47;;;3.17;;
4933;SDS011;2482;49.154;8.254;2024-02-04T04:48:54;2.90;;;2.60;;
4933;SDS011;2482;49.154;8.254;2024-02-04T04:51:24;2.90;;;2.53;;
4933;SDS011;2482;49.154;8.254;2024-02-04T04:53:51;2.77;;;2.57;;
4933;SDS011;2482;49.154;8.254;2024-02-04T04:56:18;3.07;;;2.77;;
4933;SDS011;2482;49.154;8.254;2024-02-04T04:58:45;3.27;;;2.67;;
4933;SDS011;2482;49.154;8.254;2024-02-04T05:01:12;4.13;;;2.50;;
4933;SDS011;2482;49.154;8.254;2024-02-04T05:03:41;3.33;;;3.03;;
4933;SDS011;2482;49.154;8.254;2024-02-04T05:06:08;3.07;;;2.60;;
4933;SDS011;2482;49.154;8.254;2024-02-04T05:08:35;3.23;;;2.93;;
4933;SDS011;2482;49.154;8.254;2024-02-04T05:11:02;2.80;;;2.60;;
4933;SDS011;2482;49.154;8.254;2024-02-04T05:13:29;4.13;;;2.63;;
4933;SDS011;2482;49.154;8.254;2024-02-04T05:15:56;2.80;;;2.60;;
4933;SDS011;2482;49.154;8.254;2024-02-04T05:18:23;2.80;;;2.37;;
4933;SDS011;2482;49.154;8.254;2024-02-04T05:20:53;3.03;;;2.83;;
4933;SDS011;2482;49.154;8.254;2024-02-04T05:23:20;2.97;;;2.40;;
4933;SDS011;2482;49.154;8.254;2024-02-04T05:25:47;2.80;;;2.60;;
4933;SDS011;2482;49.154;8.254;2024-02-04T05:28:14;3.67;;;2.60;;
4933;SDS011;2482;49.154;8.254;2024-02-04T05:30:41;3.67;;;2.67;;
4933;SDS011;2482;49.154;8.254;2024-02-04T05:33:08;3.50;;;3.00;;
4933;SDS011;2482;49.154;8.254;2024-02-04T05:35:35;3.33;;;3.03;;
4933;SDS011;2482;49.154;8.254;2024-02-04T05:38:04;3.47;;;2.67;;
4933;SDS011;2482;49.154;8.254;2024-02-04T05:40:31;3.10;;;2.70;;
4933;SDS011;2482;49.154;8.254;2024-02-04T05:42:59;3.57;;;2.93;;
4933;SDS011;2482;49.154;8.254;2024-02-04T05:45:26;3.50;;;3.20;;
4933;SDS011;2482;49.154;8.254;2024-02-04T05:47:54;2.80;;;2.47;;
4933;SDS011;2482;49.154;8.254;2024-02-04T05:50:21;5.30;;;3.53;;
4933;SDS011;2482;49.154;8.254;2024-02-04T05:52:48;3.90;;;2.63;;
4933;SDS011;2482;49.154;8.254;2024-02-04T05:55:15;2.93;;;2.63;;
4933;SDS011;2482;49.154;8.254;2024-02-04T05:57:42;3.10;;;2.80;;
4933;SDS011;2482;49.154;8.254;2024-02-04T06:00:10;3.80;;;3.20;;
4933;SDS011;2482;49.154;8.254;2024-02-04T06:02:39;3.00;;;2.70;;
4933;SDS011;2482;49.154;8.254;2024-02-04T06:05:07;3.40;;;3.10;;
4933;SDS011;2482;49.154;8.254;2024-02-04T06:07:35;3.73;;;3.37;;
4933;SDS011;2482;49.154;8.254;2024-02-04T06:10:02;6.20;;;3.30;;
4933;SDS011;2482;49.154;8.254;2024-02-04T06:12:30;2.80;;;2.60;;
4933;SDS011;2482;49.154;8.254;2024-02-04T06:14:57;3.50;;;2.63;;
4933;SDS011;2482;49.154;8.254;2024-02-04T06:17:24;3.17;;;2.87;;
4933;SDS011;2482;49.154;8.254;2024-02-04T06:19:51;3.10;;;2.80;;
4933;SDS011;2482;49.154;8.254;2024-02-04T06:22:19;3.30;;;3.00;;
4933;SDS011;2482;49.154;8.254;2024-02-04T06:24:46;2.93;;;2.60;;
4933;SDS011;2482;49.154;8.254;2024-02-04T06:27:13;2.87;;;2.50;;
4933;SDS011;2482;49.154;8.254;2024-02-04T06:29:40;2.90;;;2.70;;
4933;SDS011;2482;49.154;8.254;2024-02-04T06:32:07;4.13;;;3.23;;
4933;SDS011;2482;49.154;8.254;2024-02-04T06:34:34;2.97;;;2.77;;
4933;SDS011;2482;49.154;8.254;2024-02-04T06:37:02;6.53;;;2.90;;
4933;SDS011;2482;49.154;8.254;2024-02-04T06:39:30;3.73;;;3.17;;
4933;SDS011;2482;49.154;8.254;2024-02-04T06:41:57;3.70;;;3.40;;
4933;SDS011;2482;49.154;8.254;2024-02-04T06:44:24;3.37;;;2.90;;
4933;SDS011;2482;49.154;8.254;2024-02-04T06:46:51;3.60;;;3.30;;
4933;SDS011;2482;49.154;8.254;2024-02-04T06:49:19;3.50;;;2.83;;
4933;SDS011;2482;49.154;8.254;2024-02-04T06:51:46;3.73;;;3.13;;
4933;SDS011;2482;49.154;8.254;2024-02-04T06:54:14;3.90;;;3.20;;
4933;SDS011;2482;49.154;8.254;2024-02-04T06:56:41;3.27;;;2.97;;
4933;SDS011;2482;49.154;8.254;2024-02-04T06:59:08;3.90;;;3.00;;
4933;SDS011;2482;49.154;8.254;2024-02-04T07:01:35;3.73;;;3.43;;
4933;SDS011;2482;49.154;8.254;2024-02-04T07:04:02;3.33;;;2.80;;
4933;SDS011;2482;49.154;8.254;2024-02-04T07:06:30;5.33;;;3.00;;
4933;SDS011;2482;49.154;8.254;2024-02-04T07:08:57;3.70;;;3.23;;
4933;SDS011;2482;49.154;8.254;2024-02-04T07:11:25;5.00;;;3.97;;
4933;SDS011;2482;49.154;8.254;2024-02-04T07:13:52;4.60;;;3.63;;
4933;SDS011;2482;49.154;8.254;2024-02-04T07:16:25;3.90;;;3.50;;
4933;SDS011;2482;49.154;8.254;2024-02-04T07:18:53;3.57;;;3.20;;
4933;SDS011;2482;49.154;8.254;2024-02-04T07:21:22;3.40;;;3.10;;
4933;SDS011;2482;49.154;8.254;2024-02-04T07:23:49;3.83;;;3.43;;
4933;SDS011;2482;49.154;8.254;2024-02-04T07:26:17;3.93;;;3.20;;
4933;SDS011;2482;49.154;8.254;2024-02-04T07:28:45;3.37;;;3.07;;
4933;SDS011;2482;49.154;8.254;2024-02-04T07:31:12;3.03;;;2.60;;
4933;SDS011;2482;49.154;8.254;2024-02-04T07:33:39;7.20;;;3.70;;
4933;SDS011;2482;49.154;8.254;2024-02-04T07:36:06;3.10;;;2.63;;
4933;SDS011;2482;49.154;8.254;2024-02-04T07:38:34;4.80;;;2.73;;
4933;SDS011;2482;49.154;8.254;2024-02-04T07:41:01;3.00;;;2.70;;
4933;SDS011;2482;49.154;8.254;2024-02-04T07:43:28;4.77;;;2.70;;
4933;SDS011;2482;49.154;8.254;2024-02-04T07:45:55;2.57;;;2.37;;
4933;SDS011;2482;49.154;8.254;2024-02-04T07:48:24;3.27;;;2.60;;
4933;SDS011;2482;49.154;8.254;2024-02-04T07:50:51;3.63;;;2.60;;
4933;SDS011;2482;49.154;8.254;2024-02-04T07:53:19;3.00;;;2.17;;
4933;SDS011;2482;49.154;8.254;2024-02-04T07:55:47;2.47;;;2.27;;
4933;SDS011;2482;49.154;8.254;2024-02-04T07:58:16;4.80;;;2.60;;
4933;SDS011;2482;49.154;8.254;2024-02-04T08:00:44;4.97;;;2.87;;
4933;SDS011;2482;49.154;8.254;2024-02-04T08:03:11;3.23;;;2.50;;
4933;SDS011;2482;49.154;8.254;2024-02-04T08:05:39;2.53;;;2.33;;
4933;SDS011;2482;49.154;8.254;2024-02-04T08:08:08;2.27;;;2.10;;
4933;SDS011;2482;49.154;8.254;2024-02-04T08:10:35;2.70;;;2.30;;
4933;SDS011;2482;49.154;8.254;2024-02-04T08:13:02;4.90;;;2.67;;
4933;SDS011;2482;49.154;8.254;2024-02-04T08:15:30;2.47;;;2.27;;
4933;SDS011;2482;49.154;8.254;2024-02-04T08:17:57;2.90;;;2.70;;
4933;SDS011;2482;49.154;8.254;2024-02-04T08:20:24;2.37;;;2.17;;
4933;SDS011;2482;49.154;8.254;2024-02-04T08:22:51;2.40;;;2.20;;
4933;SDS011;2482;49.154;8.254;2024-02-04T08:25:19;2.30;;;2.10;;
4933;SDS011;2482;49.154;8.254;2024-02-04T08:27:46;2.33;;;2.03;;
4933;SDS011;2482;49.154;8.254;2024-02-04T08:30:14;2.40;;;2.20;;
4933;SDS011;2482;49.154;8.254;2024-02-04T08:32:43;2.00;;;1.90;;
4933;SDS011;2482;49.154;8.254;2024-02-04T08:35:12;4.37;;;2.47;;
4933;SDS011;2482;49.154;8.254;2024-02-04T08:37:40;2.70;;;2.50;;
4933;SDS011;2482;49.154;8.254;2024-02-04T08:40:08;3.90;;;1.93;;
4933;SDS011;2482;49.154;8.254;2024-02-04T08:42:37;2.10;;;1.90;;
4933;SDS011;2482;49.154;8.254;2024-02-04T08:45:04;1.60;;;1.50;;
4933;SDS011;2482;49.154;8.254;2024-02-04T08:47:31;2.13;;;1.93;;
4933;SDS011;2482;49.154;8.254;2024-02-04T08:49:58;1.70;;;1.60;;
4933;SDS011;2482;49.154;8.254;2024-02-04T08:52:26;2.10;;;1.90;;
4933;SDS011;2482;49.154;8.254;2024-02-04T08:54:53;2.17;;;1.97;;
4933;SDS011;2482;49.154;8.254;2024-02-04T08:57:20;2.20;;;1.93;;
4933;SDS011;2482;49.154;8.254;2024-02-04T08:59:47;5.07;;;3.40;;
4933;SDS011;2482;49.154;8.254;2024-02-04T09:02:14;2.53;;;2.00;;
4933;SDS011;2482;49.154;8.254;2024-02-04T09:04:41;1.93;;;1.83;;
4933;SDS011;2482;49.154;8.254;2024-02-04T09:07:08;1.90;;;1.80;;
4933;SDS011;2482;49.154;8.254;2024-02-04T09:09:36;1.60;;;1.50;;
4933;SDS011;2482;49.154;8.254;2024-02-04T09:12:03;1.73;;;1.63;;
4933;SDS011;2482;49.154;8.254;2024-02-04T09:14:31;1.80;;;1.60;;
4933;SDS011;2482;49.154;8.254;2024-02-04T09:16:58;1.60;;;1.50;;
4933;SDS011;2482;49.154;8.254;2024-02-04T09:19:25;1.80;;;1.70;;
4933;SDS011;2482;49.154;8.254;2024-02-04T09:21:52;1.60;;;1.50;;
4933;SDS011;2482;49.154;8.254;2024-02-04T09:24:19;1.90;;;1.70;;
4933;SDS011;2482;49.154;8.254;2024-02-04T09:26:46;2.20;;;2.00;;
4933;SDS011;2482;49.154;8.254;2024-02-04T09:29:14;1.47;;;1.37;;
4933;SDS011;2482;49.154;8.254;2024-02-04T09:31:41;1.63;;;1.50;;
4933;SDS011;2482;49.154;8.254;2024-02-04T09:34:08;1.63;;;1.50;;
4933;SDS011;2482;49.154;8.254;2024-02-04T09:36:35;1.63;;;1.40;;
4933;SDS011;2482;49.154;8.254;2024-02-04T09:39:02;2.07;;;1.33;;
4933;SDS011;2482;49.154;8.254;2024-02-04T09:41:30;1.47;;;1.20;;
4933;SDS011;2482;49.154;8.254;2024-02-04T09:43:57;2.53;;;1.20;;
4933;SDS011;2482;49.154;8.254;2024-02-04T09:46:26;1.60;;;1.37;;
4933;SDS011;2482;49.154;8.254;2024-02-04T09:48:53;1.10;;;1.10;;
4933;SDS011;2482;49.154;8.254;2024-02-04T09:51:22;1.20;;;1.10;;
4933;SDS011;2482;49.154;8.254;2024-02-04T09:53:52;1.33;;;1.23;;
4933;SDS011;2482;49.154;8.254;2024-02-04T09:56:24;2.73;;;1.20;;
4933;SDS011;2482;49.154;8.254;2024-02-04T09:58:52;1.20;;;1.10;;
4933;SDS011;2482;49.154;8.254;2024-02-04T10:01:19;3.03;;;1.10;;
4933;SDS011;2482;49.154;8.254;2024-02-04T10:03:49;1.20;;;0.90;;
4933;SDS011;2482;49.154;8.254;2024-02-04T10:06:25;2.50;;;1.00;;
4933;SDS011;2482;49.154;8.254;2024-02-04T10:08:53;1.10;;;1.10;;
4933;SDS011;2482;49.154;8.254;2024-02-04T10:11:21;1.90;;;1.40;;
4933;SDS011;2482;49.154;8.254;2024-02-04T10:13:49;1.30;;;1.20;;
4933;SDS011;2482;49.154;8.254;2024-02-04T10:16:16;3.00;;;2.00;;
4933;SDS011;2482;49.154;8.254;2024-02-04T10:18:44;2.20;;;1.57;;
4933;SDS011;2482;49.154;8.254;2024-02-04T10:21:19;2.60;;;1.20;;
4933;SDS011;2482;49.154;8.254;2024-02-04T10:23:49;1.10;;;1.00;;
4933;SDS011;2482;49.154;8.254;2024-02-04T10:26:17;1.10;;;1.00;;
4933;SDS011;2482;49.154;8.254;2024-02-04T10:28:48;1.13;;;1.03;;
4933;SDS011;2482;49.154;8.254;2024-02-04T10:31:15;1.70;;;1.20;;
4933;SDS011;2482;49.154;8.254;2024-02-04T10:33:43;1.43;;;1.27;;
4933;SDS011;2482;49.154;8.254;2024-02-04T10:36:11;1.70;;;1.27;;
4933;SDS011;2482;49.154;8.254;2024-02-04T10:38:38;1.20;;;1.00;;
4933;SDS011;2482;49.154;8.254;2024-02-04T10:41:05;1.83;;;1.10;;
4933;SDS011;2482;49.154;8.254;2024-02-04T10:43:34;1.40;;;1.10;;
4933;SDS011;2482;49.154;8.254;2024-02-04T10:46:06;2.27;;;1.30;;
4933;SDS011;2482;49.154;8.254;2024-02-04T10:48:54;1.20;;;1.10;;
4933;SDS011;2482;49.154;8.254;2024-02-04T10:51:26;0.90;;;0.90;;
4933;SDS011;2482;49.154;8.254;2024-02-04T10:53:54;0.90;;;0.90;;
4933;SDS011;2482;49.154;8.254;2024-02-04T10:56:26;1.47;;;1.00;;
4933;SDS011;2482;49.154;8.254;2024-02-04T10:58:59;1.30;;;1.20;;
4933;SDS011;2482;49.154;8.254;2024-02-04T11:01:29;1.00;;;0.90;;
4933;SDS011;2482;49.154;8.254;2024-02-04T11:03:57;0.90;;;0.90;;
4933;SDS011;2482;49.154;8.254;2024-02-04T11:06:26;1.13;;;1.00;;
4933;SDS011;2482;49.154;8.254;2024-02-04T11:08:54;1.20;;;1.10;;
4933;SDS011;2482;49.154;8.254;2024-02-04T11:11:24;1.77;;;1.27;;
4933;SDS011;2482;49.154;8.254;2024-02-04T11:13:54;1.63;;;1.10;;
4933;SDS011;2482;49.154;8.254;2024-02-04T11:24:58;1.30;;;1.20;;
4933;SDS011;2482;49.154;8.254;2024-02-04T11:28:02;1.37;;;1.27;;
4933;SDS011;2482;49.154;8.254;2024-02-04T11:30:33;1.33;;;1.23;;
4933;SDS011;2482;49.154;8.254;2024-02-04T11:33:03;1.10;;;1.00;;
4933;SDS011;2482;49.154;8.254;2024-02-04T11:35:32;4.33;;;1.20;;
4933;SDS011;2482;49.154;8.254;2024-02-04T11:37:59;1.13;;;1.07;;
4933;SDS011;2482;49.154;8.254;2024-02-04T11:40:33;2.23;;;1.40;;
4933;SDS011;2482;49.154;8.254;2024-02-04T11:45:37;1.90;;;1.23;;
4933;SDS011;2482;49.154;8.254;2024-02-04T11:48:09;0.83;;;0.83;;
4933;SDS011;2482;49.154;8.254;2024-02-04T11:50:37;1.00;;;0.90;;
4933;SDS011;2482;49.154;8.254;2024-02-04T11:53:10;1.03;;;0.93;;
4933;SDS011;2482;49.154;8.254;2024-02-04T11:55:39;1.00;;;1.00;;
4933;SDS011;2482;49.154;8.254;2024-02-04T11:58:11;1.40;;;0.97;;
4933;SDS011;2482;49.154;8.254;2024-02-04T12:00:41;1.10;;;1.00;;
4933;SDS011;2482;49.154;8.254;2024-02-04T12:03:14;2.70;;;1.07;;
4933;SDS011;2482;49.154;8.254;2024-02-04T12:05:41;0.73;;;0.73;;
4933;SDS011;2482;49.154;8.254;2024-02-04T12:08:10;0.93;;;0.80;;
4933;SDS011;2482;49.154;8.254;2024-02-04T12:10:38;2.30;;;1.03;;
4933;SDS011;2482;49.154;8.254;2024-02-04T12:13:07;0.80;;;0.80;;
4933;SDS011;2482;49.154;8.254;2024-02-04T12:15:34;1.00;;;0.80;;
4933;SDS011;2482;49.154;8.254;2024-02-04T12:18:08;1.00;;;0.70;;
4933;SDS011;2482;49.154;8.254;2024-02-04T12:20:38;1.77;;;0.83;;
4933;SDS011;2482;49.154;8.254;2024-02-04T12:23:05;0.87;;;0.87;;
4933;SDS011;2482;49.154;8.254;2024-02-04T12:25:34;0.90;;;0.80;;
4933;SDS011;2482;49.154;8.254;2024-02-04T12:28:04;0.80;;;0.80;;
4933;SDS011;2482;49.154;8.254;2024-02-04T12:30:32;0.70;;;0.70;;
4933;SDS011;2482;49.154;8.254;2024-02-04T12:33:01;0.80;;;0.70;;
4933;SDS011;2482;49.154;8.254;2024-02-04T12:35:31;0.80;;;0.80;;
4933;SDS011;2482;49.154;8.254;2024-02-04T12:37:59;1.03;;;0.90;;
4933;SDS011;2482;49.154;8.254;2024-02-04T12:40:27;1.13;;;0.80;;
4933;SDS011;2482;49.154;8.254;2024-02-04T12:42:55;1.23;;;0.80;;
4933;SDS011;2482;49.154;8.254;2024-02-04T12:45:31;0.70;;;0.70;;
4933;SDS011;2482;49.154;8.254;2024-02-04T12:47:58;1.10;;;0.87;;
4933;SDS011;2482;49.154;8.254;2024-02-04T12:50:25;0.87;;;0.70;;
4933;SDS011;2482;49.154;8.254;2024-02-04T12:55:35;0.90;;;0.80;;
4933;SDS011;2482;49.154;8.254;2024-02-04T12:58:13;1.20;;;0.80;;
4933;SDS011;2482;49.154;8.254;2024-02-04T13:00:43;3.70;;;0.90;;
4933;SDS011;2482;49.154;8.254;2024-02-04T13:03:14;1.10;;;0.80;;
4933;SDS011;2482;49.154;8.254;2024-02-04T13:08:58;2.00;;;1.10;;
4933;SDS011;2482;49.154;8.254;2024-02-04T13:14:14;1.93;;;0.90;;
4933;SDS011;2482;49.154;8.254;2024-02-04T13:19:13;1.40;;;0.97;;
4933;SDS011;2482;49.154;8.254;2024-02-04T13:21:40;2.10;;;1.00;;
4933;SDS011;2482;49.154;8.254;2024-02-04T13:24:08;1.57;;;0.97;;
4933;SDS011;2482;49.154;8.254;2024-02-04T13:29:12;2.30;;;0.93;;
4933;SDS011;2482;49.154;8.254;2024-02-04T13:31:48;1.50;;;1.40;;
4933;SDS011;2482;49.154;8.254;2024-02-04T13:39:31;1.70;;;1.20;;
4933;SDS011;2482;49.154;8.254;2024-02-04T13:44:30;0.90;;;0.90;;
4933;SDS011;2482;49.154;8.254;2024-02-04T13:49:28;10.17;;;6.13;;
4933;SDS011;2482;49.154;8.254;2024-02-04T13:56:58;4.90;;;3.00;;
4933;SDS011;2482;49.154;8.254;2024-02-04T13:59:25;1.37;;;1.10;;
4933;SDS011;2482;49.154;8.254;2024-02-04T14:01:51;3.90;;;2.90;;
4933;SDS011;2482;49.154;8.254;2024-02-04T14:04:23;6.37;;;5.77;;
4933;SDS011;2482;49.154;8.254;2024-02-04T14:06:50;7.87;;;7.07;;
4933;SDS011;2482;49.154;8.254;2024-02-04T14:09:32;2.90;;;2.70;;
4933;SDS011;2482;49.154;8.254;2024-02-04T14:12:02;4.30;;;3.13;;
4933;SDS011;2482;49.154;8.254;2024-02-04T14:14:31;3.57;;;3.00;;
4933;SDS011;2482;49.154;8.254;2024-02-04T14:16:59;11.37;;;8.53;;
4933;SDS011;2482;49.154;8.254;2024-02-04T14:19:28;18.13;;;13.73;;
4933;SDS011;2482;49.154;8.254;2024-02-04T14:21:55;8.00;;;6.20;;
4933;SDS011;2482;49.154;8.254;2024-02-04T14:24:22;8.30;;;7.23;;
4933;SDS011;2482;49.154;8.254;2024-02-04T14:26:55;3.57;;;3.10;;
4933;SDS011;2482;49.154;8.254;2024-02-04T14:29:25;2.97;;;2.77;;
4933;SDS011;2482;49.154;8.254;2024-02-04T14:31:52;1.43;;;1.33;;
4933;SDS011;2482;49.154;8.254;2024-02-04T14:34:21;1.50;;;1.40;;
4933;SDS011;2482;49.154;8.254;2024-02-04T14:36:49;1.80;;;1.10;;
4933;SDS011;2482;49.154;8.254;2024-02-04T14:39:16;1.60;;;1.50;;
4933;SDS011;2482;49.154;8.254;2024-02-04T14:41:44;2.30;;;1.50;;
4933;SDS011;2482;49.154;8.254;2024-02-04T14:44:20;1.70;;;1.60;;
4933;SDS011;2482;49.154;8.254;2024-02-04T14:46:49;2.47;;;1.80;;
4933;SDS011;2482;49.154;8.254;2024-02-04T14:49:16;3.17;;;1.50;;
4933;SDS011;2482;49.154;8.254;2024-02-04T14:51:43;2.23;;;1.70;;
4933;SDS011;2482;49.154;8.254;2024-02-04T14:54:10;2.13;;;2.00;;
4933;SDS011;2482;49.154;8.254;2024-02-04T14:56:41;3.53;;;1.40;;
4933;SDS011;2482;49.154;8.254;2024-02-04T15:01:50;1.77;;;1.67;;
4933;SDS011;2482;49.154;8.254;2024-02-04T15:04:18;2.20;;;1.67;;
4933;SDS011;2482;49.154;8.254;2024-02-04T15:06:47;2.50;;;2.10;;
4933;SDS011;2482;49.154;8.254;2024-02-04T15:09:14;1.60;;;1.50;;
4933;SDS011;2482;49.154;8.254;2024-02-04T15:11:50;1.57;;;1.47;;
4933;SDS011;2482;49.154;8.254;2024-02-04T15:14:18;3.03;;;1.77;;
4933;SDS011;2482;49.154;8.254;2024-02-04T15:16:47;2.50;;;1.60;;
4933;SDS011;2482;49.154;8.254;2024-02-04T15:19:16;2.50;;;1.87;;
4933;SDS011;2482;49.154;8.254;2024-02-04T15:29:36;1.57;;;1.47;;
4933;SDS011;2482;49.154;8.254;2024-02-04T15:32:04;3.83;;;1.90;;
4933;SDS011;2482;49.154;8.254;2024-02-04T15:34:32;2.30;;;1.70;;
4933;SDS011;2482;49.154;8.254;2024-02-04T15:37:04;1.77;;;1.67;;
4933;SDS011;2482;49.154;8.254;2024-02-04T15:39:32;1.77;;;1.67;;
4933;SDS011;2482;49.154;8.254;2024-02-04T15:44:38;4.00;;;1.73;;
4933;SDS011;2482;49.154;8.254;2024-02-04T15:49:44;1.97;;;1.50;;
4933;SDS011;2482;49.154;8.254;2024-02-04T15:52:12;2.00;;;1.30;;
4933;SDS011;2482;49.154;8.254;2024-02-04T15:54:41;1.63;;;1.13;;
4933;SDS011;2482;49.154;8.254;2024-02-04T15:57:09;1.27;;;1.00;;
4933;SDS011;2482;49.154;8.254;2024-02-04T15:59:57;2.93;;;1.50;;
4933;SDS011;2482;49.154;8.254;2024-02-04T16:02:37;1.63;;;1.30;;
4933;SDS011;2482;49.154;8.254;2024-02-04T16:05:05;1.70;;;1.60;;
4933;SDS011;2482;49.154;8.254;2024-02-04T16:07:33;1.40;;;1.30;;
4933;SDS011;2482;49.154;8.254;2024-02-04T16:10:01;2.00;;;1.50;;
4933;SDS011;2482;49.154;8.254;2024-02-04T16:12:29;1.40;;;1.30;;
4933;SDS011;2482;49.154;8.254;2024-02-04T16:14:58;1.47;;;1.33;;
4933;SDS011;2482;49.154;8.254;2024-02-04T16:17:25;1.57;;;1.47;;
4933;SDS011;2482;49.154;8.254;2024-02-04T16:19:54;2.23;;;1.60;;
4933;SDS011;2482;49.154;8.254;2024-02-04T16:22:23;1.30;;;1.20;;
4933;SDS011;2482;49.154;8.254;2024-02-04T16:24:51;1.67;;;1.50;;